Time;durP1;ratioP1;P1;durP2;ratioP2;P2;SDS_P1;SDS_P2;PMS_P1;PMS_P2;Temp;Humidity;BMP_temperature;BMP_pressure;BME280_temperature;BME280_humidity;BME280_pressure;Samples;Min_cycle;Max_cycle;Signal;HPM_P1;HPM_P2
2022/02/18 00:01:16;;;;;;;37.97;7.47;;;9.10;86.80;;;;;;4980543;28;20035;-79
2022/02/18 00:03:44;;;;;;;40.60;7.72;;;9.10;86.70;;;;;;4965885;28;20104;-77
2022/02/18 00:06:10;;;;;;;30.52;7.18;;;9.10;86.80;;;;;;4957448;28;20433;-77
2022/02/18 00:08:36;;;;;;;46.13;7.90;;;9.10;86.80;;;;;;4972112;28;20345;-79
2022/02/18 00:11:04;;;;;;;37.28;7.75;;;9.10;86.80;;;;;;4980508;28;20104;-77
2022/02/18 00:13:30;;;;;;;34.05;7.95;;;9.10;86.80;;;;;;4977558;28;20023;-79
2022/02/18 00:15:56;;;;;;;41.13;8.10;;;9.10;86.90;;;;;;4954768;28;20062;-82
2022/02/18 00:18:22;;;;;;;33.40;7.13;;;9.10;86.90;;;;;;4946334;28;20038;-79
2022/02/18 00:20:48;;;;;;;45.55;8.57;;;9.10;86.90;;;;;;4949174;28;20042;-81
2022/02/18 00:23:14;;;;;;;34.45;6.18;;;9.10;86.90;;;;;;4962107;28;20398;-79
2022/02/18 00:25:40;;;;;;;43.20;10.13;;;9.10;86.90;;;;;;4952449;28;20381;-78
2022/02/18 00:28:06;;;;;;;33.47;6.75;;;9.10;87.00;;;;;;4958279;28;20424;-79
2022/02/18 00:30:32;;;;;;;36.38;8.80;;;9.10;87.00;;;;;;4969127;28;20049;-80
2022/02/18 00:32:59;;;;;;;39.65;7.50;;;9.10;87.00;;;;;;4971223;28;20051;-81
2022/02/18 00:35:25;;;;;;;36.85;7.28;;;9.10;87.00;;;;;;4957601;28;20030;-77
2022/02/18 00:37:55;;;;;;;42.85;8.25;;;9.10;87.00;;;;;;4963754;28;20463;-77
2022/02/18 00:40:21;;;;;;;33.13;6.80;;;9.10;86.90;;;;;;4973509;28;20090;-77
2022/02/18 00:42:49;;;;;;;47.15;7.45;;;9.10;87.00;;;;;;4978272;28;20056;-78
2022/02/18 00:45:15;;;;;;;38.88;7.30;;;9.10;87.00;;;;;;4970146;28;20046;-77
2022/02/18 00:47:41;;;;;;;35.97;7.90;;;9.10;87.00;;;;;;4950509;28;20045;-82
2022/02/18 00:50:08;;;;;;;28.95;6.32;;;9.10;86.90;;;;;;4977239;28;20126;-79
2022/02/18 00:52:34;;;;;;;40.83;6.88;;;9.00;86.90;;;;;;4973901;28;20042;-77
2022/02/18 00:55:00;;;;;;;37.70;8.18;;;9.10;86.80;;;;;;4967616;28;20050;-76
2022/02/18 00:57:26;;;;;;;43.10;8.68;;;9.10;86.70;;;;;;4957512;28;20030;-77
2022/02/18 00:59:52;;;;;;;36.42;7.88;;;9.00;86.80;;;;;;4966516;28;20057;-80
2022/02/18 01:02:18;;;;;;;40.55;7.82;;;9.00;86.80;;;;;;4976504;28;20054;-78
2022/02/18 01:04:44;;;;;;;53.28;8.63;;;9.00;86.90;;;;;;4967685;28;20066;-76
2022/02/18 01:07:09;;;;;;;45.28;8.68;;;9.00;86.80;;;;;;4972352;28;20097;-77
2022/02/18 01:09:35;;;;;;;43.05;8.07;;;8.90;86.90;;;;;;4970257;28;20049;-80
2022/02/18 01:12:01;;;;;;;39.10;7.28;;;8.90;87.00;;;;;;4968479;28;20218;-78
2022/02/18 01:14:27;;;;;;;35.70;7.72;;;8.90;87.10;;;;;;4970632;28;20038;-80
2022/02/18 01:16:53;;;;;;;39.78;7.13;;;8.90;87.10;;;;;;4966363;28;20121;-77
2022/02/18 01:19:19;;;;;;;42.38;8.90;;;8.90;87.20;;;;;;4973822;28;20050;-82
2022/02/18 01:21:45;;;;;;;30.10;6.57;;;8.80;87.10;;;;;;4974446;28;20054;-77
2022/02/18 01:24:11;;;;;;;34.15;6.00;;;8.80;87.20;;;;;;4949655;28;20497;-79
2022/02/18 01:26:37;;;;;;;33.40;6.65;;;8.90;87.00;;;;;;4963771;28;20037;-78
2022/02/18 01:29:03;;;;;;;39.50;7.90;;;8.80;87.00;;;;;;4957915;28;20030;-78
2022/02/18 01:31:30;;;;;;;36.58;7.00;;;8.80;87.00;;;;;;4970221;28;20034;-77
2022/02/18 01:33:57;;;;;;;34.35;6.85;;;8.80;87.00;;;;;;4980766;28;20030;-78
2022/02/18 01:36:25;;;;;;;46.30;8.15;;;8.80;86.90;;;;;;4961622;28;20055;-79
2022/02/18 01:38:51;;;;;;;37.45;8.15;;;8.80;86.70;;;;;;4962767;28;20491;-78
2022/02/18 01:41:18;;;;;;;42.10;7.97;;;8.80;86.60;;;;;;4962394;28;20074;-81
2022/02/18 01:43:56;;;;;;;35.92;6.93;;;8.70;86.60;;;;;;4972937;28;20030;-76
2022/02/18 01:46:22;;;;;;;38.38;6.25;;;8.70;86.50;;;;;;4972770;28;20233;-76
2022/02/18 01:48:49;;;;;;;42.88;8.15;;;8.80;86.30;;;;;;4963725;28;20031;-80
2022/02/18 01:51:18;;;;;;;28.02;6.80;;;8.70;86.30;;;;;;4966462;28;20051;-77
2022/02/18 01:53:45;;;;;;;31.02;7.50;;;8.70;86.10;;;;;;4964334;28;20112;-79
2022/02/18 01:56:11;;;;;;;35.88;8.25;;;8.70;86.00;;;;;;4970435;28;20124;-81
2022/02/18 01:58:37;;;;;;;40.50;6.82;;;8.70;85.90;;;;;;4963462;28;20142;-77
2022/02/18 02:01:03;;;;;;;36.33;7.57;;;8.60;85.70;;;;;;4958624;28;20358;-77
2022/02/18 02:03:29;;;;;;;36.58;7.00;;;8.70;85.60;;;;;;4969446;28;20039;-80
2022/02/18 02:05:59;;;;;;;31.63;6.32;;;8.60;85.40;;;;;;4966402;28;20031;-78
2022/02/18 02:08:27;;;;;;;35.58;6.25;;;8.60;85.30;;;;;;4978906;28;20042;-78
2022/02/18 02:10:55;;;;;;;31.23;6.18;;;8.70;85.10;;;;;;4977347;28;20027;-79
2022/02/18 02:13:35;;;;;;;28.88;6.72;;;8.60;85.10;;;;;;4958664;28;20374;-79
2022/02/18 02:16:03;;;;;;;41.13;7.43;;;8.70;85.00;;;;;;4971890;28;20271;-81
2022/02/18 02:18:28;;;;;;;35.20;7.22;;;8.70;84.90;;;;;;4976606;28;20038;-79
2022/02/18 02:20:55;;;;;;;28.23;7.30;;;8.60;84.70;;;;;;4981829;28;20560;-79
2022/02/18 02:23:21;;;;;;;33.28;8.52;;;8.70;84.50;;;;;;4970530;28;20031;-77
2022/02/18 02:25:47;;;;;;;23.42;5.82;;;8.70;84.30;;;;;;4972557;28;20472;-80
2022/02/18 02:28:13;;;;;;;25.00;6.22;;;8.70;84.30;;;;;;4971025;28;20034;-77
2022/02/18 02:30:39;;;;;;;33.33;6.63;;;8.70;84.30;;;;;;4971436;28;20387;-76
2022/02/18 02:33:05;;;;;;;26.60;5.68;;;8.70;84.00;;;;;;4976490;28;20176;-78
2022/02/18 02:35:31;;;;;;;27.48;6.30;;;8.70;83.80;;;;;;4975982;28;20050;-80
2022/02/18 02:37:57;;;;;;;27.80;6.10;;;8.70;83.60;;;;;;4967047;28;20053;-78
2022/02/18 02:40:22;;;;;;;29.10;6.32;;;8.70;83.40;;;;;;4971834;28;20498;-79
2022/02/18 02:42:49;;;;;;;29.15;5.00;;;8.80;83.20;;;;;;4954886;28;20030;-79
2022/02/18 02:45:16;;;;;;;31.27;5.65;;;8.80;83.20;;;;;;4964379;28;20031;-79
2022/02/18 02:47:46;;;;;;;21.70;5.38;;;8.80;83.30;;;;;;4973439;28;20039;-80
2022/02/18 02:50:14;;;;;;;24.63;5.80;;;8.80;83.10;;;;;;4966319;28;20042;-80
2022/02/18 02:52:39;;;;;;;29.05;6.22;;;8.80;83.10;;;;;;4978988;28;20089;-78
2022/02/18 02:55:07;;;;;;;27.15;6.22;;;8.80;82.80;;;;;;4967817;28;20065;-78
2022/02/18 02:57:33;;;;;;;27.77;6.47;;;8.80;82.60;;;;;;4963598;28;20035;-77
2022/02/18 02:59:59;;;;;;;30.52;5.63;;;8.80;82.60;;;;;;4967239;28;20050;-78
2022/02/18 03:02:26;;;;;;;24.23;5.75;;;8.80;82.50;;;;;;4970815;28;20030;-78
2022/02/18 03:04:52;;;;;;;29.45;5.78;;;8.80;82.20;;;;;;4966413;28;20368;-78
2022/02/18 03:07:17;;;;;;;29.33;6.22;;;8.90;81.80;;;;;;4964432;28;20360;-79
2022/02/18 03:09:43;;;;;;;23.52;5.43;;;8.90;81.70;;;;;;4960052;28;20109;-78
2022/02/18 03:12:09;;;;;;;20.90;6.20;;;8.90;81.70;;;;;;4971623;28;20061;-79
2022/02/18 03:14:35;;;;;;;21.83;5.25;;;8.90;81.60;;;;;;4968834;28;20146;-79
2022/02/18 03:17:01;;;;;;;27.27;6.32;;;9.00;81.50;;;;;;4967986;28;20050;-78
2022/02/18 03:19:27;;;;;;;28.05;5.43;;;9.00;81.30;;;;;;4968067;28;20049;-80
2022/02/18 03:21:54;;;;;;;28.95;6.20;;;9.00;81.40;;;;;;4969578;28;20031;-79
2022/02/18 03:24:21;;;;;;;27.85;5.07;;;9.00;81.40;;;;;;4966146;28;20023;-78
2022/02/18 03:26:47;;;;;;;28.35;6.50;;;9.00;81.10;;;;;;4965267;28;20061;-79
2022/02/18 03:29:14;;;;;;;24.45;5.38;;;9.00;81.30;;;;;;4975224;28;20541;-78
2022/02/18 03:31:39;;;;;;;31.55;6.47;;;9.00;81.30;;;;;;4969005;28;20090;-79
2022/02/18 03:34:06;;;;;;;31.33;5.47;;;9.00;81.40;;;;;;4969796;28;20104;-78
2022/02/18 03:36:31;;;;;;;29.40;6.40;;;9.00;81.80;;;;;;4970925;28;20038;-78
2022/02/18 03:38:57;;;;;;;32.80;6.18;;;9.10;81.90;;;;;;4978365;28;20042;-80
2022/02/18 03:41:26;;;;;;;25.10;5.15;;;9.00;82.10;;;;;;4966963;28;20031;-78
2022/02/18 03:43:52;;;;;;;20.85;4.90;;;9.00;82.00;;;;;;4962539;28;20197;-80
2022/02/18 03:46:18;;;;;;;26.30;5.80;;;9.00;81.90;;;;;;4964341;28;20043;-78
2022/02/18 03:48:45;;;;;;;26.58;5.20;;;9.00;82.10;;;;;;4971652;28;20547;-79
2022/02/18 03:51:11;;;;;;;28.77;5.55;;;9.00;81.90;;;;;;4947700;28;20038;-80
2022/02/18 03:53:36;;;;;;;30.40;5.47;;;9.00;81.60;;;;;;4969639;28;20031;-77
2022/02/18 03:56:03;;;;;;;26.83;5.47;;;9.10;81.40;;;;;;4962205;28;20035;-78
2022/02/18 03:58:29;;;;;;;28.17;6.15;;;9.10;80.80;;;;;;4972199;28;20055;-79
2022/02/18 04:00:54;;;;;;;28.48;6.47;;;9.10;80.80;;;;;;4965950;28;20034;-78
2022/02/18 04:03:20;;;;;;;25.65;5.68;;;9.20;80.60;;;;;;4963121;28;20410;-79
2022/02/18 04:05:47;;;;;;;28.67;6.03;;;9.20;80.50;;;;;;4964008;28;20046;-81
2022/02/18 04:08:12;;;;;;;28.58;6.50;;;9.30;80.50;;;;;;4968849;28;20026;-79
2022/02/18 04:10:38;;;;;;;23.45;5.82;;;9.30;80.70;;;;;;4957348;28;20042;-79
2022/02/18 04:13:04;;;;;;;27.33;6.47;;;9.30;80.80;;;;;;4968695;28;20038;-78
2022/02/18 04:15:30;;;;;;;23.67;6.03;;;9.30;81.10;;;;;;4969579;28;20042;-79
2022/02/18 04:17:56;;;;;;;22.58;5.78;;;9.30;81.40;;;;;;4975153;28;20069;-77
2022/02/18 04:20:23;;;;;;;29.17;6.82;;;9.30;81.80;;;;;;4966513;28;20130;-78
2022/02/18 04:22:49;;;;;;;29.33;6.03;;;9.40;82.60;;;;;;4975470;28;20469;-80
2022/02/18 04:25:14;;;;;;;29.02;6.57;;;9.30;83.70;;;;;;4978955;28;20435;-77
2022/02/18 04:27:40;;;;;;;30.02;7.10;;;9.30;84.70;;;;;;4977534;28;20117;-79
2022/02/18 04:30:07;;;;;;;28.73;6.00;;;9.30;85.80;;;;;;4973176;28;20653;-76
2022/02/18 04:32:33;;;;;;;31.85;7.50;;;9.20;86.60;;;;;;4977145;28;20030;-82
2022/02/18 04:34:59;;;;;;;28.27;7.18;;;9.10;87.80;;;;;;4979331;28;20031;-79
2022/02/18 04:37:25;;;;;;;30.88;6.93;;;9.00;88.80;;;;;;4979134;28;20026;-79
2022/02/18 04:39:50;;;;;;;30.65;7.15;;;8.90;89.30;;;;;;4966740;28;20057;-78
2022/02/18 04:42:16;;;;;;;29.90;6.47;;;8.90;89.70;;;;;;4976468;28;20054;-78
2022/02/18 04:44:42;;;;;;;33.85;8.30;;;8.80;90.00;;;;;;4967313;28;20023;-79
2022/02/18 04:47:07;;;;;;;32.15;6.70;;;8.80;90.20;;;;;;4968913;28;20125;-77
2022/02/18 04:49:33;;;;;;;33.47;6.90;;;8.80;90.60;;;;;;4965811;28;20029;-80
2022/02/18 04:51:59;;;;;;;30.33;7.15;;;8.70;90.90;;;;;;4963576;28;20407;-79
2022/02/18 04:54:24;;;;;;;26.77;6.50;;;8.70;91.00;;;;;;4971135;28;20034;-80
2022/02/18 04:56:50;;;;;;;37.40;7.63;;;8.80;91.00;;;;;;4972106;28;20058;-78
2022/02/18 04:59:17;;;;;;;28.60;7.43;;;8.70;91.00;;;;;;4976708;28;20121;-79
2022/02/18 05:01:43;;;;;;;36.92;7.82;;;8.80;91.00;;;;;;4976445;28;20031;-78
2022/02/18 05:04:09;;;;;;;36.40;7.95;;;8.80;91.10;;;;;;4968219;28;20516;-82
2022/02/18 05:06:34;;;;;;;36.30;7.13;;;8.80;91.10;;;;;;4971700;28;20027;-81
2022/02/18 05:09:00;;;;;;;31.13;7.70;;;8.80;91.00;;;;;;4970688;28;20410;-79
2022/02/18 05:11:26;;;;;;;31.67;7.47;;;8.80;91.10;;;;;;4968955;28;20051;-78
2022/02/18 05:13:51;;;;;;;29.70;7.82;;;8.80;91.20;;;;;;4955396;28;20620;-77
2022/02/18 05:16:17;;;;;;;30.55;7.70;;;8.90;91.30;;;;;;4969134;28;20065;-79
2022/02/18 05:18:43;;;;;;;32.65;7.90;;;8.80;91.30;;;;;;4968802;28;20050;-81
2022/02/18 05:21:08;;;;;;;29.42;8.23;;;8.80;91.40;;;;;;4964886;28;20046;-77
2022/02/18 05:23:34;;;;;;;31.30;7.88;;;8.90;91.50;;;;;;4950397;28;20092;-79
2022/02/18 05:26:00;;;;;;;30.15;7.35;;;8.90;91.50;;;;;;4963727;28;20045;-77
2022/02/18 05:28:25;;;;;;;33.97;7.55;;;8.90;91.60;;;;;;4953737;28;20039;-79
2022/02/18 05:30:51;;;;;;;25.15;7.82;;;9.00;91.60;;;;;;4948063;28;20126;-82
2022/02/18 05:33:17;;;;;;;32.88;7.40;;;9.00;91.70;;;;;;4955151;28;20491;-81
2022/02/18 05:35:42;;;;;;;30.42;8.35;;;9.00;91.70;;;;;;4957695;28;20042;-78
2022/02/18 05:38:08;;;;;;;27.52;8.00;;;9.10;91.80;;;;;;4950898;28;20429;-78
2022/02/18 05:40:34;;;;;;;35.60;8.43;;;9.10;91.70;;;;;;4954531;28;20479;-79
2022/02/18 05:43:00;;;;;;;34.50;8.88;;;9.10;91.70;;;;;;4965425;28;20429;-78
2022/02/18 05:45:26;;;;;;;29.58;8.43;;;9.10;91.60;;;;;;4958501;28;20034;-78
2022/02/18 05:47:51;;;;;;;31.73;8.07;;;9.10;91.60;;;;;;4962375;28;20486;-80
2022/02/18 05:50:17;;;;;;;27.02;9.25;;;9.20;91.60;;;;;;4985982;28;20533;-79
2022/02/18 05:52:46;;;;;;;26.88;8.75;;;9.20;91.70;;;;;;4971548;28;20030;-78
2022/02/18 05:55:12;;;;;;;25.52;8.00;;;9.30;91.70;;;;;;4961460;28;20122;-78
2022/02/18 05:57:38;;;;;;;22.40;7.40;;;9.30;91.70;;;;;;4962835;28;20479;-78
2022/02/18 06:00:07;;;;;;;24.80;8.25;;;9.30;91.60;;;;;;4954830;28;20058;-80
2022/02/18 06:02:33;;;;;;;28.83;7.03;;;9.40;91.70;;;;;;4959309;28;20039;-79
2022/02/18 06:05:01;;;;;;;24.60;8.02;;;9.50;91.70;;;;;;4958255;28;20121;-78
2022/02/18 06:07:27;;;;;;;22.95;7.88;;;9.50;91.70;;;;;;4956155;28;20122;-77
2022/02/18 06:09:53;;;;;;;26.30;7.25;;;9.60;91.60;;;;;;4954982;28;20047;-78
2022/02/18 06:12:18;;;;;;;25.52;7.95;;;9.60;91.60;;;;;;4958844;28;20498;-77
2022/02/18 06:14:49;;;;;;;23.02;7.10;;;9.60;91.50;;;;;;4941161;28;20066;-80
2022/02/18 06:17:21;;;;;;;21.02;7.32;;;9.70;91.40;;;;;;4947290;28;20255;-78
2022/02/18 06:19:47;;;;;;;24.33;6.90;;;9.70;91.30;;;;;;4944325;28;20047;-81
2022/02/18 06:22:14;;;;;;;24.73;7.43;;;9.80;91.30;;;;;;4964402;28;20031;-79
2022/02/18 06:24:40;;;;;;;23.55;7.88;;;9.80;91.20;;;;;;4963340;28;20038;-79
2022/02/18 06:27:06;;;;;;;23.92;7.72;;;9.80;91.10;;;;;;4953544;28;20046;-77
2022/02/18 06:29:31;;;;;;;28.15;7.70;;;9.90;91.10;;;;;;4967555;28;20062;-78
2022/02/18 06:32:00;;;;;;;21.25;7.30;;;9.90;91.00;;;;;;4974575;28;20383;-77
2022/02/18 06:34:26;;;;;;;18.67;6.78;;;9.90;91.00;;;;;;4968471;28;20030;-78
2022/02/18 06:36:52;;;;;;;21.35;6.53;;;9.90;91.00;;;;;;4974963;28;20438;-82
2022/02/18 06:39:22;;;;;;;24.63;7.63;;;10.00;90.80;;;;;;4964836;28;20078;-79
2022/02/18 06:41:49;;;;;;;18.73;6.03;;;10.00;90.80;;;;;;4949253;28;20046;-79
2022/02/18 06:44:16;;;;;;;17.60;6.07;;;10.10;90.70;;;;;;4974157;28;20077;-79
2022/02/18 06:46:42;;;;;;;19.02;6.15;;;10.10;90.70;;;;;;4976490;28;20062;-82
2022/02/18 06:49:09;;;;;;;20.52;6.70;;;10.10;90.60;;;;;;4980568;28;20077;-79
2022/02/18 06:51:34;;;;;;;18.52;6.78;;;10.20;90.50;;;;;;4964651;28;20031;-76
2022/02/18 06:54:00;;;;;;;18.92;7.18;;;10.30;90.40;;;;;;4962910;28;20035;-74
2022/02/18 06:56:27;;;;;;;24.90;13.48;;;10.40;90.20;;;;;;4952156;28;20499;-76
2022/02/18 06:58:54;;;;;;;27.95;17.05;;;10.40;90.10;;;;;;4960247;28;20442;-72
2022/02/18 07:01:20;;;;;;;38.20;26.65;;;10.50;90.00;;;;;;4963491;28;20046;-72
2022/02/18 07:03:46;;;;;;;44.38;39.60;;;10.50;89.90;;;;;;4966672;28;20451;-77
2022/02/18 07:06:12;;;;;;;31.15;25.33;;;10.50;90.00;;;;;;4959845;28;20047;-76
2022/02/18 07:08:38;;;;;;;30.38;23.02;;;10.60;89.90;;;;;;4951269;28;20062;-75
2022/02/18 07:11:04;;;;;;;23.27;11.30;;;10.60;89.90;;;;;;4958757;28;20444;-72
2022/02/18 07:13:30;;;;;;;21.05;7.15;;;10.60;89.90;;;;;;4949365;28;20042;-75
2022/02/18 07:15:56;;;;;;;10.77;3.92;;;10.70;89.80;;;;;;4945711;28;20142;-77
2022/02/18 07:18:23;;;;;;;12.13;4.60;;;10.70;89.80;;;;;;4920285;28;20047;-75
2022/02/18 07:20:50;;;;;;;12.65;4.13;;;10.80;89.70;;;;;;4938512;28;20387;-75
2022/02/18 07:23:16;;;;;;;11.90;4.18;;;10.90;89.60;;;;;;4905370;28;20119;-72
2022/02/18 07:25:42;;;;;;;8.88;3.78;;;10.90;89.50;;;;;;4905541;29;20480;-76
2022/02/18 07:28:08;;;;;;;11.52;4.30;;;10.90;89.50;;;;;;4911204;28;20040;-73
2022/02/18 07:30:34;;;;;;;13.10;5.32;;;11.00;89.40;;;;;;4911657;29;20075;-72
2022/02/18 07:33:00;;;;;;;10.48;3.70;;;11.00;89.20;;;;;;4922355;29;20032;-73
2022/02/18 07:35:32;;;;;;;10.00;4.40;;;11.10;89.20;;;;;;4912615;28;20036;-75
2022/02/18 07:37:59;;;;;;;10.82;4.07;;;11.00;89.20;;;;;;4915287;28;20102;-72
2022/02/18 07:40:26;;;;;;;11.05;4.13;;;11.10;89.20;;;;;;4919377;28;20023;-74
2022/02/18 07:42:52;;;;;;;10.95;4.30;;;11.10;89.20;;;;;;4929460;28;20470;-72
2022/02/18 07:45:18;;;;;;;11.85;4.32;;;11.10;89.20;;;;;;4933597;28;20590;-74
2022/02/18 07:47:44;;;;;;;7.78;3.30;;;11.10;89.10;;;;;;4935449;28;20035;-74
2022/02/18 07:50:10;;;;;;;7.82;3.83;;;11.10;89.10;;;;;;4931601;28;20075;-72
2022/02/18 07:52:37;;;;;;;10.80;3.65;;;11.20;89.00;;;;;;4925446;28;20035;-75
2022/02/18 07:55:04;;;;;;;9.52;3.55;;;11.20;88.90;;;;;;4932177;28;20288;-72
2022/02/18 07:57:30;;;;;;;8.52;3.60;;;11.20;88.90;;;;;;4930718;28;20392;-77
2022/02/18 07:59:55;;;;;;;8.70;2.92;;;11.30;88.80;;;;;;4926244;28;20199;-73
2022/02/18 08:02:21;;;;;;;8.27;2.78;;;11.30;88.80;;;;;;4921328;28;20075;-73
2022/02/18 08:04:47;;;;;;;7.25;3.78;;;11.30;88.70;;;;;;4914646;28;20103;-78
2022/02/18 08:07:13;;;;;;;6.50;2.70;;;11.40;88.60;;;;;;4916718;28;20321;-73
2022/02/18 08:09:39;;;;;;;7.18;2.53;;;11.40;88.50;;;;;;4915435;28;20063;-75
2022/02/18 08:12:05;;;;;;;6.55;2.47;;;11.50;88.40;;;;;;4914446;28;20547;-74
2022/02/18 08:14:31;;;;;;;5.32;2.80;;;11.60;88.20;;;;;;4926441;28;20047;-74
2022/02/18 08:16:57;;;;;;;4.03;2.30;;;11.60;88.00;;;;;;4931566;28;20052;-77
2022/02/18 08:19:23;;;;;;;6.82;3.20;;;11.60;87.70;;;;;;4920950;28;20295;-80
2022/02/18 08:21:49;;;;;;;8.43;3.08;;;11.70;87.50;;;;;;4929307;28;20047;-73
2022/02/18 08:24:18;;;;;;;7.18;3.63;;;11.70;87.40;;;;;;4930052;28;20038;-72
2022/02/18 08:26:48;;;;;;;3.90;1.80;;;11.70;87.40;;;;;;4929373;28;20031;-75
2022/02/18 08:29:18;;;;;;;2.95;1.75;;;11.80;87.30;;;;;;4929335;28;20042;-74
2022/02/18 08:31:44;;;;;;;4.45;1.80;;;11.80;87.20;;;;;;4926832;28;20038;-74
2022/02/18 08:34:10;;;;;;;3.97;1.70;;;11.80;87.00;;;;;;4922918;28;20044;-75
2022/02/18 08:36:36;;;;;;;4.85;1.67;;;11.90;87.00;;;;;;4924797;28;20038;-74
2022/02/18 08:39:05;;;;;;;4.50;1.90;;;11.90;86.90;;;;;;4935222;28;20482;-73
2022/02/18 08:41:33;;;;;;;3.42;1.65;;;11.90;86.80;;;;;;4932996;28;20063;-76
2022/02/18 08:43:59;;;;;;;2.58;1.33;;;12.00;86.60;;;;;;4929976;28;20027;-73
2022/02/18 08:46:26;;;;;;;3.28;1.55;;;12.00;86.60;;;;;;4932204;28;20510;-71
2022/02/18 08:48:51;;;;;;;3.65;1.55;;;12.00;86.60;;;;;;4931444;28;20036;-72
2022/02/18 08:51:18;;;;;;;3.15;1.40;;;12.10;86.50;;;;;;4924071;28;20491;-77
2022/02/18 08:53:43;;;;;;;2.60;1.50;;;12.10;86.40;;;;;;4922158;28;20035;-73
2022/02/18 08:56:10;;;;;;;4.47;1.35;;;12.10;86.20;;;;;;4922908;28;20193;-72
2022/02/18 08:58:36;;;;;;;3.00;1.40;;;12.10;86.10;;;;;;4931758;28;20047;-79
2022/02/18 09:01:01;;;;;;;4.65;1.90;;;12.10;85.90;;;;;;4933495;28;20054;-74
2022/02/18 09:03:27;;;;;;;5.95;1.90;;;12.20;85.80;;;;;;4929085;28;20050;-73
2022/02/18 09:05:53;;;;;;;3.90;1.40;;;12.10;85.80;;;;;;4922638;28;20040;-74
2022/02/18 09:08:21;;;;;;;2.50;1.30;;;12.20;85.60;;;;;;4934949;28;20035;-73
2022/02/18 09:10:49;;;;;;;3.25;1.27;;;12.20;85.60;;;;;;4939548;28;20471;-79
2022/02/18 09:13:15;;;;;;;2.75;1.25;;;12.30;85.40;;;;;;4939449;28;20043;-76
2022/02/18 09:15:41;;;;;;;3.67;1.27;;;12.30;85.30;;;;;;4942272;28;20161;-82
2022/02/18 09:18:07;;;;;;;2.65;1.20;;;12.40;85.10;;;;;;4953495;28;20041;-73
2022/02/18 09:20:33;;;;;;;3.00;1.17;;;12.50;85.00;;;;;;4970565;28;20034;-77
2022/02/18 09:22:59;;;;;;;3.25;1.20;;;12.60;84.80;;;;;;4974293;28;20403;-77
2022/02/18 09:25:25;;;;;;;2.97;1.35;;;12.60;84.30;;;;;;4967158;28;20082;-74
2022/02/18 09:27:51;;;;;;;1.83;1.40;;;12.60;84.00;;;;;;4975773;28;20366;-76
2022/02/18 09:30:17;;;;;;;2.28;1.10;;;12.70;83.60;;;;;;4985246;28;20138;-76
2022/02/18 09:32:43;;;;;;;2.55;1.10;;;12.70;83.40;;;;;;4979999;28;20339;-72
2022/02/18 09:35:09;;;;;;;3.60;1.42;;;12.60;83.50;;;;;;4977948;28;20057;-77
2022/02/18 09:37:37;;;;;;;3.55;1.40;;;12.70;83.80;;;;;;4967568;28;20046;-76
2022/02/18 09:40:06;;;;;;;4.55;1.30;;;12.60;83.70;;;;;;4976606;28;20533;-76
2022/02/18 09:42:31;;;;;;;4.72;1.35;;;12.60;83.70;;;;;;4970722;28;20454;-73
2022/02/18 09:44:57;;;;;;;3.08;1.48;;;12.60;83.60;;;;;;4966691;28;20573;-73
2022/02/18 09:47:24;;;;;;;3.92;1.23;;;12.60;83.60;;;;;;4973564;28;20121;-76
2022/02/18 09:49:52;;;;;;;2.97;1.50;;;12.60;83.50;;;;;;4961954;28;20035;-79
2022/02/18 09:52:18;;;;;;;4.38;1.30;;;12.60;83.50;;;;;;4951335;28;20133;-73
2022/02/18 09:54:46;;;;;;;3.72;1.48;;;12.60;83.50;;;;;;4989048;28;20037;-74
2022/02/18 09:57:14;;;;;;;3.53;2.00;;;12.60;83.60;;;;;;4958308;28;20054;-73
2022/02/18 09:59:39;;;;;;;3.42;1.20;;;12.60;83.50;;;;;;4965989;28;20062;-73
2022/02/18 10:02:06;;;;;;;5.53;1.40;;;12.70;83.40;;;;;;4971243;28;20141;-76
2022/02/18 10:04:33;;;;;;;3.75;1.20;;;12.70;83.50;;;;;;4967345;28;20089;-78
2022/02/18 10:07:02;;;;;;;3.92;1.40;;;12.70;83.50;;;;;;4964406;28;20137;-73
2022/02/18 10:09:45;;;;;;;3.10;1.10;;;12.70;83.80;;;;;;4963971;28;20038;-76
2022/02/18 10:12:13;;;;;;;4.30;1.00;;;12.70;84.00;;;;;;4986298;28;20564;-75
2022/02/18 10:15:00;;;;;;;4.65;1.38;;;12.70;83.90;;;;;;4972492;28;20150;-72
2022/02/18 10:17:37;;;;;;;5.10;1.42;;;12.70;84.00;;;;;;4970032;28;20048;-74
2022/02/18 10:20:15;;;;;;;1.95;0.90;;;12.70;83.90;;;;;;4970825;28;20471;-79
2022/02/18 10:22:54;;;;;;;2.92;1.20;;;12.70;83.90;;;;;;4964295;28;20126;-80
2022/02/18 10:25:35;;;;;;;1.85;0.90;;;12.70;83.90;;;;;;4964789;28;20035;-72
2022/02/18 10:28:04;;;;;;;4.28;1.73;;;12.80;83.90;;;;;;4949882;28;20483;-75
2022/02/18 10:30:31;;;;;;;3.55;1.40;;;12.80;83.70;;;;;;4965372;28;20122;-74
2022/02/18 10:32:59;;;;;;;3.05;1.10;;;12.80;83.60;;;;;;4950478;28;20043;-77
2022/02/18 10:35:35;;;;;;;5.00;1.50;;;12.80;83.70;;;;;;4963326;28;20043;-73
2022/02/18 10:38:01;;;;;;;2.97;1.10;;;12.80;83.60;;;;;;4962953;28;20035;-76
2022/02/18 10:40:28;;;;;;;3.17;1.30;;;12.80;83.40;;;;;;4971917;28;20075;-76
2022/02/18 10:42:56;;;;;;;2.60;1.15;;;12.80;83.50;;;;;;4959028;28;20592;-78
2022/02/18 10:45:29;;;;;;;2.85;1.55;;;12.90;83.60;;;;;;4968172;28;20062;-71
2022/02/18 10:48:13;;;;;;;2.25;1.10;;;12.80;84.20;;;;;;4958200;28;20058;-72
2022/02/18 10:50:39;;;;;;;3.08;1.50;;;12.90;84.60;;;;;;4963879;28;20027;-75
2022/02/18 10:53:10;;;;;;;3.33;1.25;;;12.90;84.30;;;;;;4955753;28;20038;-74
2022/02/18 10:55:53;;;;;;;1.98;1.05;;;13.00;84.10;;;;;;4975323;28;20034;-75
2022/02/18 10:58:24;;;;;;;3.25;1.27;;;13.00;84.20;;;;;;4959564;28;20047;-73
2022/02/18 11:01:08;;;;;;;2.22;1.13;;;12.90;84.60;;;;;;4963501;28;20134;-75
2022/02/18 11:03:35;;;;;;;2.67;1.37;;;12.90;85.70;;;;;;4962589;28;20045;-74
2022/02/18 11:06:23;;;;;;;2.67;1.30;;;12.80;85.90;;;;;;4956776;28;20051;-73
2022/02/18 11:09:00;;;;;;;3.83;1.83;;;12.90;86.40;;;;;;4961335;28;20039;-73
2022/02/18 11:11:32;;;;;;;2.42;1.38;;;12.90;86.60;;;;;;4954641;28;20120;-74
2022/02/18 11:14:04;;;;;;;5.20;1.58;;;12.80;86.20;;;;;;4968776;28;20042;-80
2022/02/18 11:16:31;;;;;;;9.35;1.85;;;12.70;86.90;;;;;;4965083;28;20089;-74
2022/02/18 11:18:57;;;;;;;7.47;1.77;;;11.80;87.30;;;;;;4972012;28;20149;-76
2022/02/18 11:21:27;;;;;;;10.38;2.17;;;11.30;87.20;;;;;;4961481;28;20094;-72
2022/02/18 11:23:54;;;;;;;10.35;2.30;;;11.20;86.60;;;;;;4960925;28;20038;-77
2022/02/18 11:26:22;;;;;;;8.35;2.20;;;11.10;86.20;;;;;;4964405;28;20034;-74
2022/02/18 11:28:49;;;;;;;13.70;2.72;;;11.00;85.50;;;;;;4961852;28;20070;-79
2022/02/18 11:31:29;;;;;;;12.32;3.17;;;10.90;86.10;;;;;;4984363;28;20576;-78
2022/02/18 11:34:19;;;;;;;14.10;3.30;;;11.00;86.20;;;;;;4948107;28;20478;-72
2022/02/18 11:36:49;;;;;;;13.65;2.53;;;11.00;84.70;;;;;;4952680;28;20094;-73
2022/02/18 11:39:55;;;;;;;11.35;3.00;;;10.90;83.50;;;;;;4963721;28;20047;-73
2022/02/18 11:42:54;;;;;;;13.38;3.28;;;11.00;82.10;;;;;;4962542;28;20049;-72
2022/02/18 11:45:23;;;;;;;10.57;3.28;;;11.00;81.60;;;;;;4956874;28;20491;-71
2022/02/18 11:47:49;;;;;;;17.85;3.30;;;10.90;81.50;;;;;;4960707;28;20113;-74
2022/02/18 11:50:17;;;;;;;12.25;2.97;;;10.90;81.20;;;;;;4957774;28;20042;-73
2022/02/18 11:52:50;;;;;;;15.88;3.53;;;10.80;80.90;;;;;;4957170;28;20534;-74
2022/02/18 11:55:36;;;;;;;14.50;3.88;;;10.70;81.20;;;;;;4959042;28;20149;-74
2022/02/18 11:58:14;;;;;;;14.27;3.55;;;10.70;81.80;;;;;;4965862;28;20384;-78
2022/02/18 12:00:44;;;;;;;13.18;3.97;;;10.60;81.60;;;;;;4961569;28;20058;-76
2022/02/18 12:03:20;;;;;;;17.25;3.25;;;10.60;81.40;;;;;;4973729;28;20030;-74
2022/02/18 12:06:10;;;;;;;11.45;3.08;;;10.60;80.40;;;;;;4970566;28;20568;-73
2022/02/18 12:08:38;;;;;;;12.80;3.50;;;10.70;80.60;;;;;;4950766;28;20035;-76
2022/02/18 12:11:15;;;;;;;17.92;3.60;;;10.60;78.90;;;;;;4963564;28;20049;-75
2022/02/18 12:14:04;;;;;;;17.52;3.67;;;10.60;78.80;;;;;;4967812;28;20051;-73
2022/02/18 12:16:30;;;;;;;17.85;4.32;;;10.60;77.90;;;;;;4965899;28;20061;-76
2022/02/18 12:19:13;;;;;;;22.75;4.75;;;10.60;77.30;;;;;;4952552;28;20467;-77
2022/02/18 12:21:58;;;;;;;20.85;4.13;;;10.70;77.60;;;;;;4952652;28;20508;-73
2022/02/18 12:24:47;;;;;;;17.80;4.05;;;10.70;76.60;;;;;;4957109;28;20572;-72
2022/02/18 12:27:31;;;;;;;21.15;3.60;;;10.80;76.30;;;;;;4952772;28;20062;-73
2022/02/18 12:30:02;;;;;;;19.27;5.00;;;10.70;75.50;;;;;;4968625;28;20089;-74
2022/02/18 12:32:28;;;;;;;22.23;5.13;;;10.80;74.90;;;;;;4959087;28;20045;-73
2022/02/18 12:35:06;;;;;;;20.27;4.22;;;10.80;74.90;;;;;;4959347;28;20039;-73
2022/02/18 12:37:33;;;;;;;23.27;4.72;;;10.80;74.80;;;;;;4934734;28;20444;-72
2022/02/18 12:40:00;;;;;;;19.75;4.78;;;10.90;73.10;;;;;;4941623;28;20073;-76
2022/02/18 12:42:31;;;;;;;24.60;5.25;;;11.00;71.60;;;;;;4940240;28;20692;-74
2022/02/18 12:44:59;;;;;;;22.65;5.03;;;11.10;70.70;;;;;;4954064;28;20039;-72
2022/02/18 12:47:33;;;;;;;16.02;4.18;;;11.10;70.20;;;;;;4965807;28;20081;-74
2022/02/18 12:50:08;;;;;;;20.03;4.63;;;11.20;69.80;;;;;;4959175;28;20041;-73